Open Full Screen Window  High Contrast Mode
Wind Gusting 00 knots
04
August 03, 2017 9:21 AM EDT
Weather Information
Wind Direction
  210 °
Wind Speed
  04 kt (5 mph)
Wind Gust
  00 kt (0 mph)
Altimeter
30.06 in
Visibility
---
Temperature
23° C
73° F
Dewpoint
21° C
70° F
Humidity
89%
1hr Rain Fall
00.00 in.
24hr Rain Fall
00.00 in.
Sky Condition
Missing

METAR KPCW 031321Z AUTO 21004KT 23/21 A3006 RMK AO2 RAE08 $

*Background is not an actual portrayal of the airport.
Missing Cloud Data